4XZCZ LCPH-LLBG
Flight info
| Callsign | 4XZCZ |
|---|---|
| Flight time | 1h 2m |
| Altitude | 25000 |
| Route | ESERI DCT IDAKU L35 PIKOG L609 ZUKKO |
| Aircraft | SF50/L-SDGRWY/L |
Departure
| Time | 2026-05-06 10:45 |
|---|---|
| Airport | Paphos International Airport (LCPH) |
Arrival
| Time | 2026-05-06 11:47 |
|---|---|
| Airport | Ben Gurion International Airport (LLBG) |
| Time | Latitude | Longitude | Altitude | Speed | Heading |
|---|---|---|---|---|---|
| 2026-05-06 10:27 | 34.71446 | 32.48092 | 40 ft | 0 kts | 200° |
| 2026-05-06 10:40 | 34.71430 | 32.48090 | 40 ft | 7 kts | 153° |
| 2026-05-06 10:40 | 34.71416 | 32.48177 | 40 ft | 11 kts | 94° |
| 2026-05-06 10:41 | 34.71442 | 32.48257 | 40 ft | 12 kts | 30° |
| 2026-05-06 10:41 | 34.71529 | 32.48297 | 39 ft | 6 kts | 20° |
| 2026-05-06 10:41 | 34.71539 | 32.48300 | 39 ft | 0 kts | 5° |
| 2026-05-06 10:42 | 34.71550 | 32.48302 | 39 ft | 3 kts | 9° |
| 2026-05-06 10:42 | 34.71552 | 32.48302 | 39 ft | 0 kts | 9° |
| 2026-05-06 10:42 | 34.71611 | 32.48334 | 39 ft | 17 kts | 22° |
| 2026-05-06 10:43 | 34.71718 | 32.48381 | 40 ft | 5 kts | 19° |
| 2026-05-06 10:43 | 34.71726 | 32.48385 | 40 ft | 0 kts | 20° |
| 2026-05-06 10:43 | 34.71736 | 32.48389 | 40 ft | 5 kts | 21° |
| 2026-05-06 10:44 | 34.71842 | 32.48405 | 40 ft | 0 kts | 294° |
| 2026-05-06 10:44 | 34.71860 | 32.48346 | 39 ft | 30 kts | 290° |
| 2026-05-06 10:44 | 34.72001 | 32.47883 | 40 ft | 86 kts | 291° |
| 2026-05-06 10:44 | 34.72233 | 32.47126 | 296 ft | 99 kts | 284° |
| 2026-05-06 10:45 | 34.72419 | 32.46305 | 564 ft | 108 kts | 276° |
| 2026-05-06 10:45 | 34.72294 | 32.45432 | 964 ft | 109 kts | 243° |
| 2026-05-06 10:45 | 34.71737 | 32.44764 | 1392 ft | 121 kts | 211° |
| 2026-05-06 10:45 | 34.70873 | 32.44528 | 1820 ft | 132 kts | 194° |
| 2026-05-06 10:46 | 34.69964 | 32.44280 | 2246 ft | 137 kts | 199° |
| 2026-05-06 10:46 | 34.69006 | 32.44013 | 2679 ft | 146 kts | 197° |
| 2026-05-06 10:46 | 34.67985 | 32.43744 | 3097 ft | 154 kts | 197° |
| 2026-05-06 10:46 | 34.66907 | 32.43462 | 3540 ft | 161 kts | 197° |
| 2026-05-06 10:47 | 34.65845 | 32.43185 | 4175 ft | 151 kts | 198° |
| 2026-05-06 10:47 | 34.64850 | 32.42927 | 4816 ft | 141 kts | 197° |
| 2026-05-06 10:47 | 34.63930 | 32.42687 | 5427 ft | 129 kts | 198° |
| 2026-05-06 10:47 | 34.63108 | 32.42471 | 6023 ft | 112 kts | 199° |
| 2026-05-06 10:48 | 34.62386 | 32.42289 | 6456 ft | 105 kts | 197° |
| 2026-05-06 10:48 | 34.61691 | 32.42102 | 6792 ft | 102 kts | 199° |
| 2026-05-06 10:48 | 34.60936 | 32.41890 | 6972 ft | 119 kts | 198° |
| 2026-05-06 10:48 | 34.60074 | 32.41661 | 7195 ft | 135 kts | 197° |
| 2026-05-06 10:49 | 34.59111 | 32.41405 | 7475 ft | 147 kts | 197° |
| 2026-05-06 10:49 | 34.58067 | 32.41130 | 7759 ft | 159 kts | 197° |
| 2026-05-06 10:49 | 34.56945 | 32.40833 | 8051 ft | 170 kts | 196° |
| 2026-05-06 10:49 | 34.55751 | 32.40523 | 8350 ft | 181 kts | 196° |
| 2026-05-06 10:50 | 34.54492 | 32.40193 | 8647 ft | 190 kts | 196° |
| 2026-05-06 10:50 | 34.53175 | 32.39849 | 8947 ft | 198 kts | 196° |
| 2026-05-06 10:50 | 34.51802 | 32.39490 | 9241 ft | 205 kts | 196° |
| 2026-05-06 10:50 | 34.50387 | 32.39118 | 9567 ft | 209 kts | 196° |
| 2026-05-06 10:51 | 34.48966 | 32.38869 | 10078 ft | 206 kts | 182° |
| 2026-05-06 10:51 | 34.47578 | 32.39199 | 10545 ft | 202 kts | 161° |
| 2026-05-06 10:51 | 34.46367 | 32.40020 | 11016 ft | 197 kts | 146° |
| 2026-05-06 10:51 | 34.45259 | 32.40912 | 11485 ft | 190 kts | 149° |
| 2026-05-06 10:52 | 34.44161 | 32.41761 | 11967 ft | 184 kts | 148° |
| 2026-05-06 10:52 | 34.43110 | 32.42597 | 12458 ft | 177 kts | 148° |
| 2026-05-06 10:52 | 34.42103 | 32.43395 | 12938 ft | 169 kts | 149° |
| 2026-05-06 10:52 | 34.41132 | 32.44167 | 13341 ft | 166 kts | 149° |
| 2026-05-06 10:53 | 34.40168 | 32.44929 | 13725 ft | 164 kts | 149° |
| 2026-05-06 10:53 | 34.39214 | 32.45686 | 14051 ft | 165 kts | 150° |
| 2026-05-06 10:53 | 34.38235 | 32.46457 | 14296 ft | 171 kts | 150° |
| 2026-05-06 10:53 | 34.37224 | 32.47261 | 14549 ft | 177 kts | 150° |
| 2026-05-06 10:54 | 34.36178 | 32.48087 | 14801 ft | 182 kts | 150° |
| 2026-05-06 10:54 | 34.35102 | 32.48940 | 15052 ft | 188 kts | 150° |
| 2026-05-06 10:54 | 34.33995 | 32.49819 | 15311 ft | 193 kts | 150° |
| 2026-05-06 10:54 | 34.32854 | 32.50727 | 15568 ft | 199 kts | 150° |
| 2026-05-06 10:55 | 34.31682 | 32.51655 | 15822 ft | 204 kts | 151° |
| 2026-05-06 10:55 | 34.30480 | 32.52610 | 16086 ft | 209 kts | 151° |
| 2026-05-06 10:55 | 34.29249 | 32.53585 | 16343 ft | 214 kts | 151° |
| 2026-05-06 10:55 | 34.28007 | 32.54570 | 16600 ft | 218 kts | 151° |
| 2026-05-06 10:56 | 34.26725 | 32.55584 | 16860 ft | 223 kts | 152° |
| 2026-05-06 10:56 | 34.25417 | 32.56620 | 17124 ft | 226 kts | 152° |
| 2026-05-06 10:56 | 34.24091 | 32.57671 | 17388 ft | 229 kts | 152° |
| 2026-05-06 10:56 | 34.22749 | 32.58732 | 17655 ft | 232 kts | 152° |
| 2026-05-06 10:57 | 34.21386 | 32.59808 | 17924 ft | 235 kts | 152° |
| 2026-05-06 10:57 | 34.20009 | 32.60895 | 18197 ft | 238 kts | 153° |
| 2026-05-06 10:57 | 34.18613 | 32.61995 | 18453 ft | 240 kts | 153° |
| 2026-05-06 10:57 | 34.17203 | 32.63107 | 18685 ft | 243 kts | 153° |
| 2026-05-06 10:58 | 34.15777 | 32.64231 | 18921 ft | 246 kts | 152° |
| 2026-05-06 10:58 | 34.14334 | 32.65368 | 19164 ft | 249 kts | 152° |
| 2026-05-06 10:58 | 34.12876 | 32.66516 | 19404 ft | 252 kts | 152° |
| 2026-05-06 10:58 | 34.11399 | 32.67679 | 19641 ft | 255 kts | 152° |
| 2026-05-06 10:59 | 34.09906 | 32.68854 | 19884 ft | 258 kts | 152° |
| 2026-05-06 10:59 | 34.08392 | 32.70040 | 20131 ft | 260 kts | 153° |
| 2026-05-06 10:59 | 34.06862 | 32.71160 | 20374 ft | 263 kts | 153° |
| 2026-05-06 10:59 | 34.05304 | 32.72341 | 20624 ft | 266 kts | 153° |
| 2026-05-06 11:00 | 34.03726 | 32.73529 | 20875 ft | 269 kts | 153° |
| 2026-05-06 11:00 | 34.02126 | 32.74720 | 21129 ft | 272 kts | 153° |
| 2026-05-06 11:00 | 34.00504 | 32.75927 | 21386 ft | 275 kts | 153° |
| 2026-05-06 11:00 | 33.98867 | 32.77150 | 21644 ft | 279 kts | 153° |
| 2026-05-06 11:01 | 33.97211 | 32.78385 | 21903 ft | 281 kts | 153° |
| 2026-05-06 11:01 | 33.95536 | 32.79632 | 22163 ft | 284 kts | 153° |
| 2026-05-06 11:01 | 33.93849 | 32.80889 | 22426 ft | 286 kts | 153° |
| 2026-05-06 11:01 | 33.92151 | 32.82153 | 22692 ft | 288 kts | 153° |
| 2026-05-06 11:02 | 33.90440 | 32.83425 | 22959 ft | 290 kts | 152° |
| 2026-05-06 11:02 | 33.88722 | 32.84703 | 23233 ft | 291 kts | 152° |
| 2026-05-06 11:02 | 33.86997 | 32.85986 | 23498 ft | 292 kts | 152° |
| 2026-05-06 11:02 | 33.85264 | 32.87272 | 23757 ft | 293 kts | 152° |
| 2026-05-06 11:03 | 33.83525 | 32.88561 | 23983 ft | 293 kts | 153° |
| 2026-05-06 11:03 | 33.81786 | 32.89851 | 24218 ft | 293 kts | 150° |
| 2026-05-06 11:03 | 33.80048 | 32.91140 | 24452 ft | 293 kts | 153° |
| 2026-05-06 11:03 | 33.78313 | 32.92425 | 24681 ft | 293 kts | 153° |
| 2026-05-06 11:04 | 33.76573 | 32.93714 | 24917 ft | 293 kts | 153° |
| 2026-05-06 11:04 | 33.74850 | 32.94988 | 25019 ft | 298 kts | 153° |
| 2026-05-06 11:04 | 33.73054 | 32.96312 | 25029 ft | 307 kts | 153° |
| 2026-05-06 11:04 | 33.71210 | 32.97677 | 25034 ft | 315 kts | 153° |
| 2026-05-06 11:05 | 33.69324 | 32.99073 | 25034 ft | 322 kts | 153° |
| 2026-05-06 11:05 | 33.67402 | 33.00492 | 25032 ft | 327 kts | 153° |
| 2026-05-06 11:05 | 33.65454 | 33.01931 | 25036 ft | 331 kts | 153° |
| 2026-05-06 11:05 | 33.63479 | 33.03388 | 25035 ft | 335 kts | 153° |
| 2026-05-06 11:06 | 33.61484 | 33.04860 | 25033 ft | 338 kts | 153° |
| 2026-05-06 11:06 | 33.59469 | 33.06347 | 25030 ft | 341 kts | 153° |
| 2026-05-06 11:06 | 33.57444 | 33.07840 | 25033 ft | 343 kts | 153° |
| 2026-05-06 11:06 | 33.55402 | 33.09344 | 25033 ft | 345 kts | 153° |
| 2026-05-06 11:07 | 33.53346 | 33.10858 | 25035 ft | 347 kts | 153° |
| 2026-05-06 11:07 | 33.51308 | 33.12358 | 25030 ft | 349 kts | 153° |
| 2026-05-06 11:07 | 33.49231 | 33.13885 | 25031 ft | 351 kts | 153° |
| 2026-05-06 11:07 | 33.47144 | 33.15419 | 25031 ft | 352 kts | 153° |
| 2026-05-06 11:08 | 33.45048 | 33.16958 | 25029 ft | 354 kts | 153° |
| 2026-05-06 11:08 | 33.42945 | 33.18502 | 25028 ft | 355 kts | 153° |
| 2026-05-06 11:08 | 33.40837 | 33.20049 | 25028 ft | 355 kts | 153° |
| 2026-05-06 11:08 | 33.38732 | 33.21593 | 25028 ft | 355 kts | 153° |
| 2026-05-06 11:09 | 33.36622 | 33.23139 | 25026 ft | 355 kts | 153° |
| 2026-05-06 11:09 | 33.34516 | 33.24681 | 25022 ft | 354 kts | 153° |
| 2026-05-06 11:09 | 33.32415 | 33.26219 | 25019 ft | 354 kts | 153° |
| 2026-05-06 11:09 | 33.30316 | 33.27754 | 25020 ft | 354 kts | 153° |
| 2026-05-06 11:10 | 33.28216 | 33.29289 | 25019 ft | 353 kts | 153° |
| 2026-05-06 11:10 | 33.26115 | 33.30822 | 24844 ft | 354 kts | 153° |
| 2026-05-06 11:10 | 33.24024 | 33.32351 | 24558 ft | 350 kts | 153° |
| 2026-05-06 11:10 | 33.21957 | 33.33861 | 24279 ft | 346 kts | 153° |
| 2026-05-06 11:11 | 33.19909 | 33.35353 | 23997 ft | 344 kts | 154° |
| 2026-05-06 11:11 | 33.17866 | 33.36840 | 23722 ft | 344 kts | 154° |
| 2026-05-06 11:11 | 33.15847 | 33.38310 | 23407 ft | 344 kts | 154° |
| 2026-05-06 11:11 | 33.13798 | 33.39803 | 23085 ft | 345 kts | 154° |
| 2026-05-06 11:12 | 33.11748 | 33.41295 | 22761 ft | 345 kts | 154° |
| 2026-05-06 11:12 | 33.09696 | 33.42786 | 22437 ft | 345 kts | 154° |
| 2026-05-06 11:12 | 33.07647 | 33.44276 | 22125 ft | 345 kts | 154° |
| 2026-05-06 11:12 | 33.05594 | 33.45767 | 21813 ft | 345 kts | 154° |
| 2026-05-06 11:13 | 33.03538 | 33.47260 | 21505 ft | 346 kts | 154° |
| 2026-05-06 11:13 | 33.01482 | 33.48752 | 21198 ft | 346 kts | 154° |
| 2026-05-06 11:13 | 32.99427 | 33.50243 | 20897 ft | 345 kts | 154° |
| 2026-05-06 11:13 | 32.97375 | 33.51730 | 20600 ft | 344 kts | 154° |
| 2026-05-06 11:14 | 32.95332 | 33.53213 | 20303 ft | 343 kts | 154° |
| 2026-05-06 11:14 | 32.93323 | 33.54667 | 20010 ft | 341 kts | 154° |
| 2026-05-06 11:14 | 32.91298 | 33.56133 | 19718 ft | 340 kts | 154° |
| 2026-05-06 11:14 | 32.89282 | 33.57591 | 19434 ft | 338 kts | 154° |
| 2026-05-06 11:15 | 32.87273 | 33.59044 | 19149 ft | 337 kts | 154° |
| 2026-05-06 11:15 | 32.85273 | 33.60488 | 18865 ft | 336 kts | 154° |
| 2026-05-06 11:15 | 32.83288 | 33.61935 | 18584 ft | 335 kts | 152° |
| 2026-05-06 11:15 | 32.81490 | 33.63735 | 18281 ft | 339 kts | 137° |
| 2026-05-06 11:16 | 32.79871 | 33.65771 | 17928 ft | 338 kts | 137° |
| 2026-05-06 11:16 | 32.78243 | 33.67777 | 17481 ft | 336 kts | 137° |
| 2026-05-06 11:16 | 32.76626 | 33.69756 | 17044 ft | 332 kts | 137° |
| 2026-05-06 11:16 | 32.75036 | 33.71721 | 16610 ft | 328 kts | 137° |
| 2026-05-06 11:17 | 32.73464 | 33.73664 | 16184 ft | 325 kts | 137° |
| 2026-05-06 11:17 | 32.71904 | 33.75585 | 15760 ft | 322 kts | 137° |
| 2026-05-06 11:17 | 32.70378 | 33.77463 | 15353 ft | 319 kts | 137° |
| 2026-05-06 11:17 | 32.68846 | 33.79349 | 14944 ft | 316 kts | 137° |
| 2026-05-06 11:18 | 32.67326 | 33.81220 | 14539 ft | 313 kts | 137° |
| 2026-05-06 11:18 | 32.65824 | 33.83067 | 14244 ft | 309 kts | 137° |
| 2026-05-06 11:18 | 32.64333 | 33.84899 | 14002 ft | 308 kts | 137° |
| 2026-05-06 11:18 | 32.62949 | 33.86840 | 13755 ft | 310 kts | 128° |
| 2026-05-06 11:19 | 32.61836 | 33.89031 | 13518 ft | 312 kts | 121° |
| 2026-05-06 11:19 | 32.60760 | 33.91326 | 13279 ft | 323 kts | 122° |
| 2026-05-06 11:19 | 32.59561 | 33.93617 | 13055 ft | 330 kts | 125° |
| 2026-05-06 11:19 | 32.58310 | 33.95906 | 12820 ft | 331 kts | 125° |
| 2026-05-06 11:20 | 32.57097 | 33.98223 | 12590 ft | 331 kts | 123° |
| 2026-05-06 11:20 | 32.55904 | 34.00547 | 12361 ft | 329 kts | 123° |
| 2026-05-06 11:20 | 32.54701 | 34.02846 | 12132 ft | 326 kts | 124° |
| 2026-05-06 11:20 | 32.53500 | 34.05117 | 11906 ft | 324 kts | 124° |
| 2026-05-06 11:21 | 32.52312 | 34.07383 | 11681 ft | 322 kts | 124° |
| 2026-05-06 11:21 | 32.51149 | 34.09607 | 11455 ft | 320 kts | 124° |
| 2026-05-06 11:21 | 32.49974 | 34.11842 | 11235 ft | 318 kts | 124° |
| 2026-05-06 11:21 | 32.48803 | 34.14069 | 11013 ft | 316 kts | 124° |
| 2026-05-06 11:22 | 32.47645 | 34.16276 | 10794 ft | 315 kts | 124° |
| 2026-05-06 11:22 | 32.46489 | 34.18473 | 10575 ft | 313 kts | 124° |
| 2026-05-06 11:22 | 32.45344 | 34.20648 | 10359 ft | 310 kts | 124° |
| 2026-05-06 11:22 | 32.44208 | 34.22809 | 10144 ft | 309 kts | 124° |
| 2026-05-06 11:23 | 32.43074 | 34.24960 | 9926 ft | 306 kts | 124° |
| 2026-05-06 11:23 | 32.41949 | 34.27094 | 9684 ft | 306 kts | 123° |
| 2026-05-06 11:23 | 32.40824 | 34.29227 | 9443 ft | 304 kts | 123° |
| 2026-05-06 11:23 | 32.39706 | 34.31348 | 9211 ft | 303 kts | 124° |
| 2026-05-06 11:24 | 32.38594 | 34.33452 | 8975 ft | 301 kts | 124° |
| 2026-05-06 11:24 | 32.37503 | 34.35517 | 8739 ft | 299 kts | 124° |
| 2026-05-06 11:24 | 32.36400 | 34.37602 | 8507 ft | 298 kts | 124° |
| 2026-05-06 11:24 | 32.35290 | 34.39703 | 8275 ft | 297 kts | 124° |
| 2026-05-06 11:25 | 32.34210 | 34.41745 | 8050 ft | 295 kts | 124° |
| 2026-05-06 11:25 | 32.33122 | 34.43799 | 7820 ft | 294 kts | 124° |
| 2026-05-06 11:25 | 32.32390 | 34.45179 | 7670 ft | 293 kts | 124° |
| 2026-05-06 11:25 | 32.32230 | 34.45481 | 7624 ft | 293 kts | 124° |
| 2026-05-06 11:26 | 32.31146 | 34.47527 | 7411 ft | 292 kts | 124° |
| 2026-05-06 11:26 | 32.30072 | 34.49553 | 7188 ft | 290 kts | 124° |
| 2026-05-06 11:26 | 32.29003 | 34.51566 | 6970 ft | 288 kts | 124° |
| 2026-05-06 11:26 | 32.27939 | 34.53568 | 6824 ft | 287 kts | 124° |
| 2026-05-06 11:27 | 32.26876 | 34.55570 | 6702 ft | 287 kts | 124° |
| 2026-05-06 11:27 | 32.25818 | 34.57561 | 6574 ft | 286 kts | 124° |
| 2026-05-06 11:27 | 32.24762 | 34.59546 | 6454 ft | 285 kts | 124° |
| 2026-05-06 11:27 | 32.23705 | 34.61528 | 6323 ft | 284 kts | 124° |
| 2026-05-06 11:28 | 32.22667 | 34.63480 | 6195 ft | 283 kts | 125° |
| 2026-05-06 11:28 | 32.21604 | 34.65479 | 6062 ft | 283 kts | 124° |
| 2026-05-06 11:28 | 32.20561 | 34.67436 | 6021 ft | 280 kts | 124° |
| 2026-05-06 11:28 | 32.19537 | 34.69359 | 6018 ft | 273 kts | 124° |
| 2026-05-06 11:29 | 32.18537 | 34.71234 | 6010 ft | 268 kts | 124° |
| 2026-05-06 11:29 | 32.17561 | 34.73061 | 6008 ft | 263 kts | 124° |
| 2026-05-06 11:29 | 32.16610 | 34.74845 | 6003 ft | 252 kts | 125° |
| 2026-05-06 11:29 | 32.15695 | 34.76574 | 6003 ft | 245 kts | 123° |
| 2026-05-06 11:30 | 32.14955 | 34.78389 | 6003 ft | 244 kts | 116° |
| 2026-05-06 11:30 | 32.14245 | 34.80230 | 6007 ft | 247 kts | 117° |
| 2026-05-06 11:30 | 32.13521 | 34.82064 | 6003 ft | 245 kts | 117° |
| 2026-05-06 11:30 | 32.12799 | 34.83888 | 6001 ft | 245 kts | 118° |
| 2026-05-06 11:31 | 32.12080 | 34.85702 | 6003 ft | 244 kts | 118° |
| 2026-05-06 11:31 | 32.11357 | 34.87523 | 5996 ft | 244 kts | 118° |
| 2026-05-06 11:31 | 32.10638 | 34.89343 | 6001 ft | 244 kts | 117° |
| 2026-05-06 11:31 | 32.09924 | 34.91148 | 6007 ft | 238 kts | 117° |
| 2026-05-06 11:32 | 32.09240 | 34.92878 | 5998 ft | 227 kts | 119° |
| 2026-05-06 11:32 | 32.08585 | 34.94532 | 5997 ft | 219 kts | 117° |
| 2026-05-06 11:32 | 32.07944 | 34.96151 | 5889 ft | 218 kts | 117° |
| 2026-05-06 11:32 | 32.07299 | 34.97779 | 5754 ft | 219 kts | 118° |
| 2026-05-06 11:33 | 32.06869 | 34.98861 | 5679 ft | 220 kts | 118° |
| 2026-05-06 11:33 | 32.06220 | 35.00492 | 5548 ft | 219 kts | 118° |
| 2026-05-06 11:33 | 32.05568 | 35.02127 | 5421 ft | 221 kts | 119° |
| 2026-05-06 11:33 | 32.04917 | 35.03768 | 5294 ft | 221 kts | 118° |
| 2026-05-06 11:34 | 32.04272 | 35.05399 | 5170 ft | 219 kts | 118° |
| 2026-05-06 11:34 | 32.03620 | 35.07041 | 5056 ft | 222 kts | 119° |
| 2026-05-06 11:34 | 32.02968 | 35.08689 | 4952 ft | 222 kts | 118° |
| 2026-05-06 11:34 | 32.02318 | 35.10327 | 4851 ft | 221 kts | 119° |
| 2026-05-06 11:35 | 32.01668 | 35.11963 | 4749 ft | 221 kts | 118° |
| 2026-05-06 11:35 | 32.01007 | 35.13605 | 4644 ft | 221 kts | 120° |
| 2026-05-06 11:35 | 32.00105 | 35.15004 | 4544 ft | 213 kts | 141° |
| 2026-05-06 11:35 | 31.98897 | 35.15954 | 4429 ft | 206 kts | 161° |
| 2026-05-06 11:36 | 31.97544 | 35.16403 | 4332 ft | 199 kts | 178° |
| 2026-05-06 11:36 | 31.96251 | 35.16411 | 4225 ft | 175 kts | 189° |
| 2026-05-06 11:36 | 31.95085 | 35.16392 | 4109 ft | 159 kts | 186° |
| 2026-05-06 11:36 | 31.94074 | 35.16148 | 3995 ft | 138 kts | 203° |
| 2026-05-06 11:37 | 31.93182 | 35.15856 | 3952 ft | 129 kts | 204° |
| 2026-05-06 11:37 | 31.92334 | 35.15630 | 3905 ft | 124 kts | 201° |
| 2026-05-06 11:37 | 31.91499 | 35.15349 | 3833 ft | 123 kts | 206° |
| 2026-05-06 11:37 | 31.90731 | 35.14947 | 3766 ft | 120 kts | 222° |
| 2026-05-06 11:38 | 31.90130 | 35.14253 | 3690 ft | 119 kts | 239° |
| 2026-05-06 11:38 | 31.89772 | 35.13410 | 3725 ft | 118 kts | 255° |
| 2026-05-06 11:38 | 31.89647 | 35.12462 | 3721 ft | 116 kts | 270° |
| 2026-05-06 11:38 | 31.89678 | 35.11540 | 3710 ft | 111 kts | 269° |
| 2026-05-06 11:39 | 31.89686 | 35.10668 | 3697 ft | 102 kts | 269° |
| 2026-05-06 11:39 | 31.89698 | 35.09885 | 3700 ft | 92 kts | 272° |
| 2026-05-06 11:39 | 31.89737 | 35.09171 | 3697 ft | 85 kts | 284° |
| 2026-05-06 11:39 | 31.90047 | 35.08571 | 3708 ft | 89 kts | 295° |
| 2026-05-06 11:40 | 31.90382 | 35.07912 | 3465 ft | 98 kts | 294° |
| 2026-05-06 11:40 | 31.90752 | 35.07238 | 3228 ft | 97 kts | 295° |
| 2026-05-06 11:40 | 31.91080 | 35.06604 | 3204 ft | 86 kts | 293° |
| 2026-05-06 11:40 | 31.91379 | 35.06022 | 3201 ft | 80 kts | 294° |
| 2026-05-06 11:41 | 31.91683 | 35.05456 | 3203 ft | 83 kts | 294° |
| 2026-05-06 11:41 | 31.91991 | 35.04853 | 3216 ft | 88 kts | 297° |
| 2026-05-06 11:41 | 31.92299 | 35.04248 | 3212 ft | 87 kts | 294° |
| 2026-05-06 11:41 | 31.92621 | 35.03638 | 3158 ft | 90 kts | 294° |
| 2026-05-06 11:42 | 31.92934 | 35.02992 | 3027 ft | 93 kts | 297° |
| 2026-05-06 11:42 | 31.93270 | 35.02359 | 2895 ft | 89 kts | 299° |
| 2026-05-06 11:42 | 31.93600 | 35.01743 | 2768 ft | 88 kts | 298° |
| 2026-05-06 11:42 | 31.93918 | 35.01129 | 2644 ft | 87 kts | 296° |
| 2026-05-06 11:43 | 31.94247 | 35.00516 | 2524 ft | 88 kts | 297° |
| 2026-05-06 11:43 | 31.94556 | 34.99905 | 2383 ft | 85 kts | 298° |
| 2026-05-06 11:43 | 31.94867 | 34.99314 | 2273 ft | 85 kts | 298° |
| 2026-05-06 11:44 | 31.95478 | 34.98145 | 2027 ft | 85 kts | 297° |
| 2026-05-06 11:44 | 31.95792 | 34.97537 | 1898 ft | 88 kts | 300° |
| 2026-05-06 11:44 | 31.96115 | 34.96910 | 1768 ft | 92 kts | 298° |
| 2026-05-06 11:44 | 31.96460 | 34.96265 | 1638 ft | 95 kts | 300° |
| 2026-05-06 11:45 | 31.96792 | 34.95597 | 1488 ft | 93 kts | 297° |
| 2026-05-06 11:45 | 31.97118 | 34.94965 | 1349 ft | 87 kts | 300° |
| 2026-05-06 11:45 | 31.97442 | 34.94348 | 1228 ft | 90 kts | 300° |
| 2026-05-06 11:45 | 31.97781 | 34.93709 | 1097 ft | 93 kts | 303° |
| 2026-05-06 11:46 | 31.98126 | 34.93052 | 1028 ft | 95 kts | 298° |
| 2026-05-06 11:46 | 31.98463 | 34.92377 | 902 ft | 97 kts | 298° |
| 2026-05-06 11:46 | 31.98810 | 34.91698 | 745 ft | 95 kts | 299° |
| 2026-05-06 11:46 | 31.99169 | 34.91041 | 559 ft | 96 kts | 299° |
| 2026-05-06 11:47 | 31.99513 | 34.90359 | 385 ft | 98 kts | 301° |
| 2026-05-06 11:47 | 31.99868 | 34.89679 | 230 ft | 97 kts | 299° |
| 2026-05-06 11:47 | 32.00211 | 34.89015 | 125 ft | 87 kts | 298° |
| 2026-05-06 11:47 | 32.00466 | 34.88519 | 116 ft | 47 kts | 301° |
| 2026-05-06 11:48 | 32.00575 | 34.88313 | 114 ft | 37 kts | 302° |
| 2026-05-06 11:48 | 32.00718 | 34.88040 | 113 ft | 28 kts | 320° |
| 2026-05-06 11:48 | 32.00798 | 34.88070 | 114 ft | 11 kts | 33° |
| 2026-05-06 11:48 | 32.00835 | 34.88097 | 114 ft | 3 kts | 30° |
| 2026-05-06 11:49 | 32.00869 | 34.88123 | 114 ft | 18 kts | 31° |
| 2026-05-06 11:49 | 32.00894 | 34.88234 | 114 ft | 15 kts | 121° |
| 2026-05-06 11:49 | 32.00848 | 34.88328 | 114 ft | 11 kts | 122° |
| 2026-05-06 11:49 | 32.00773 | 34.88470 | 114 ft | 24 kts | 121° |
| 2026-05-06 11:50 | 32.00694 | 34.88621 | 114 ft | 19 kts | 121° |
| 2026-05-06 11:50 | 32.00630 | 34.88746 | 114 ft | 17 kts | 121° |
| 2026-05-06 11:50 | 32.00575 | 34.88850 | 114 ft | 13 kts | 122° |
| 2026-05-06 11:50 | 32.00519 | 34.88961 | 114 ft | 19 kts | 121° |
| 2026-05-06 11:51 | 32.00443 | 34.89106 | 113 ft | 22 kts | 122° |
| 2026-05-06 11:51 | 32.00361 | 34.89267 | 113 ft | 22 kts | 121° |
| 2026-05-06 11:51 | 32.00287 | 34.89414 | 113 ft | 21 kts | 122° |
| 2026-05-06 11:51 | 32.00233 | 34.89552 | 113 ft | 16 kts | 63° |
| 2026-05-06 11:52 | 32.00321 | 34.89607 | 113 ft | 16 kts | 16° |
| 2026-05-06 11:52 | 32.00440 | 34.89649 | 113 ft | 23 kts | 17° |
| 2026-05-06 11:52 | 32.00570 | 34.89663 | 113 ft | 11 kts | 315° |
| 2026-05-06 11:52 | 32.00638 | 34.89640 | 113 ft | 12 kts | 24° |
| 2026-05-06 11:53 | 32.00707 | 34.89684 | 113 ft | 14 kts | 28° |
| 2026-05-06 11:53 | 32.00841 | 34.89770 | 113 ft | 28 kts | 28° |
| 2026-05-06 11:53 | 32.00911 | 34.89814 | 113 ft | 0 kts | 13° |
| 2026-05-06 11:53 | 32.00932 | 34.89790 | 113 ft | 6 kts | 299° |
| 2026-05-06 11:54 | 32.00946 | 34.89759 | 113 ft | 0 kts | 297° |